Liberty, Pennsylvania
Current Conditions -  °F | °C
As of 5:35 AM on Thursday 18 Dec 2014 (Local Time) from KN38 Reporting Station
Overcast Overcast  
Wind Chill: 18°   Ceiling: 2300
Heat Index: 28°   Visibility: 10mi
Dew Point: 19°   Wind: 12mph
Humidity: 69%   Direction: 300°WNW
Pressure: 29.99"   Gusts: 29mph
Location:  41.56°N, 77.1°W
Report Text: KN38 181035Z AUTO 30010G25KT 10SM OVC023 M02/M07 A2999 RMK AO2
Loading
Personal Weather Stations






























Interactive Weather Map New forecast layout! Learn more

10-Day Weather Forecast

Advertisements
Track Severe Weather on mobile